Time;durP1;ratioP1;P1;durP2;ratioP2;P2;SDS_P1;SDS_P2;PMS_P1;PMS_P2;Temp;Humidity;BMP_temperature;BMP_pressure;BME280_temperature;BME280_humidity;BME280_pressure;Samples;Min_cycle;Max_cycle;Signal;HPM_P1;HPM_P2
2023/03/03 00:01:50;;;;;;;38.50;16.38;;;;;;;0.34;100.00;102239.34;5114642;28;20027;-86
2023/03/03 00:04:21;;;;;;;35.70;16.50;;;;;;;0.38;100.00;102253.31;5114592;28;20100;-86
2023/03/03 00:06:51;;;;;;;37.92;16.98;;;;;;;0.36;100.00;102241.91;5115903;28;20027;-86
2023/03/03 00:09:16;;;;;;;38.33;16.33;;;;;;;0.42;100.00;102243.28;5114813;28;20069;-86
2023/03/03 00:11:42;;;;;;;41.03;17.00;;;;;;;0.49;100.00;102244.53;5097725;28;20031;-86
2023/03/03 00:14:21;;;;;;;40.03;16.17;;;;;;;0.64;100.00;102250.53;5114530;28;20023;-86
2023/03/03 00:16:53;;;;;;;38.03;16.15;;;;;;;0.72;100.00;102242.78;5114604;28;20421;-86
2023/03/03 00:19:19;;;;;;;31.15;15.55;;;;;;;0.85;100.00;102250.72;5096882;28;20050;-86
2023/03/03 00:21:50;;;;;;;37.85;16.13;;;;;;;0.90;100.00;102256.56;5115037;28;20035;-86
2023/03/03 00:24:36;;;;;;;34.30;15.40;;;;;;;0.97;100.00;102249.75;5114211;28;20031;-86
2023/03/03 00:27:43;;;;;;;38.33;16.17;;;;;;;1.01;100.00;102253.91;5115571;28;20027;-86
2023/03/03 00:30:21;;;;;;;34.95;15.57;;;;;;;1.10;100.00;102251.50;5105014;28;20044;-86
2023/03/03 00:32:49;;;;;;;32.90;14.05;;;;;;;1.18;100.00;102257.09;5115413;28;20049;-86
2023/03/03 00:35:26;;;;;;;33.35;14.88;;;;;;;1.23;100.00;102255.75;5114004;28;20024;-85
2023/03/03 00:37:57;;;;;;;31.52;14.15;;;;;;;1.30;100.00;102252.59;5129816;27;20157;-87
2023/03/03 00:40:36;;;;;;;30.63;14.10;;;;;;;1.32;100.00;102254.19;5117040;27;20034;-86
2023/03/03 00:43:37;;;;;;;33.70;14.82;;;;;;;1.36;100.00;102252.16;5117451;27;20027;-86
2023/03/03 00:46:02;;;;;;;29.95;13.43;;;;;;;1.45;100.00;102255.91;5117124;27;20062;-86
2023/03/03 00:48:38;;;;;;;30.20;13.85;;;;;;;1.44;100.00;102252.38;5117073;27;20486;-87
2023/03/03 00:51:21;;;;;;;32.60;14.10;;;;;;;1.49;100.00;102263.59;5116791;27;20037;-86
2023/03/03 00:53:50;;;;;;;29.33;13.02;;;;;;;1.48;100.00;102253.84;5117113;27;20077;-86
2023/03/03 00:56:18;;;;;;;29.25;12.32;;;;;;;1.44;100.00;102249.72;5117107;27;20035;-86
2023/03/03 00:58:46;;;;;;;26.55;12.52;;;;;;;1.42;100.00;102258.81;5116721;27;20463;-86
2023/03/03 01:01:16;;;;;;;28.02;12.95;;;;;;;1.43;100.00;102250.66;5135149;27;20544;-86
2023/03/03 01:03:47;;;;;;;28.13;12.53;;;;;;;1.46;100.00;102270.97;5116568;27;20088;-86
2023/03/03 01:06:13;;;;;;;26.40;13.02;;;;;;;1.48;100.00;102253.00;5117017;27;20031;-86
2023/03/03 01:08:46;;;;;;;32.08;12.60;;;;;;;1.46;100.00;102258.47;5135272;27;20023;-86
2023/03/03 01:11:24;;;;;;;26.65;12.25;;;;;;;1.48;100.00;102255.69;5135781;27;20106;-86
2023/03/03 01:13:53;;;;;;;28.85;11.82;;;;;;;1.48;100.00;102269.91;5116988;28;20163;-86
2023/03/03 01:16:20;;;;;;;29.40;13.27;;;;;;;1.48;100.00;102271.72;5099893;27;20035;-86
2023/03/03 01:18:45;;;;;;;30.50;13.90;;;;;;;1.50;100.00;102259.91;5116574;27;20043;-85
2023/03/03 01:21:11;;;;;;;25.90;12.07;;;;;;;1.54;100.00;102263.22;5115642;27;20034;-86
2023/03/03 01:23:40;;;;;;;31.90;13.82;;;;;;;1.57;100.00;102262.97;5116369;27;20023;-87
2023/03/03 01:26:10;;;;;;;30.85;12.82;;;;;;;1.57;100.00;102274.50;5116373;27;20033;-87
2023/03/03 01:28:36;;;;;;;28.00;12.60;;;;;;;1.62;100.00;102271.47;5099432;27;20034;-86
2023/03/03 01:31:03;;;;;;;26.77;12.03;;;;;;;1.66;100.00;102274.78;5115613;28;20072;-86
2023/03/03 01:33:32;;;;;;;27.33;12.65;;;;;;;1.70;100.00;102269.06;5115948;27;20031;-85
2023/03/03 01:35:58;;;;;;;28.52;12.80;;;;;;;1.74;100.00;102277.66;5116474;27;20107;-87
2023/03/03 01:38:29;;;;;;;27.70;11.87;;;;;;;1.74;100.00;102272.31;5115733;27;20483;-87
2023/03/03 01:40:56;;;;;;;28.23;13.30;;;;;;;1.73;100.00;102270.63;5099176;27;20023;-87
2023/03/03 01:43:25;;;;;;;27.70;12.95;;;;;;;1.76;100.00;102275.75;5116021;27;20031;-87
2023/03/03 01:45:52;;;;;;;30.08;13.38;;;;;;;1.81;99.91;102281.56;5116284;27;20027;-86
2023/03/03 01:48:24;;;;;;;28.33;13.15;;;;;;;1.80;99.57;102293.25;5134253;27;20450;-87
2023/03/03 01:51:44;;;;;;;33.13;13.93;;;;;;;1.75;99.49;102285.56;5116112;27;20023;-86
2023/03/03 01:54:16;;;;;;;29.98;12.65;;;;;;;1.75;98.48;102282.91;5103563;27;20039;-86
2023/03/03 01:56:47;;;;;;;32.20;13.88;;;;;;;1.66;99.28;102275.63;5134978;27;20106;-86
2023/03/03 01:59:21;;;;;;;27.85;13.15;;;;;;;1.62;99.13;102270.63;5098818;28;20034;-86
2023/03/03 02:01:47;;;;;;;27.60;12.68;;;;;;;1.61;98.45;102275.16;5116095;28;20083;-86
2023/03/03 02:04:14;;;;;;;30.67;13.20;;;;;;;1.58;98.73;102272.72;5115857;28;20031;-86
2023/03/03 02:06:44;;;;;;;32.38;13.82;;;;;;;1.55;99.09;102267.56;5115762;28;20027;-86
2023/03/03 02:09:35;;;;;;;30.73;13.43;;;;;;;1.56;99.53;102275.47;5116026;28;20432;-86
2023/03/03 02:12:15;;;;;;;25.55;12.23;;;;;;;1.52;99.34;102263.34;5116173;28;20027;-86
2023/03/03 02:14:43;;;;;;;31.52;13.65;;;;;;;1.55;99.58;102271.13;5134338;28;20483;-86
2023/03/03 02:17:09;;;;;;;27.63;12.77;;;;;;;1.59;99.44;102277.06;5115732;28;20034;-86
2023/03/03 02:19:54;;;;;;;33.63;14.10;;;;;;;1.67;98.71;102288.03;5098858;28;20031;-86
2023/03/03 02:22:31;;;;;;;27.65;11.57;;;;;;;1.65;97.96;102279.25;5115431;28;20023;-86
2023/03/03 02:25:01;;;;;;;31.70;13.27;;;;;;;1.64;98.37;102276.69;5134292;28;20031;-87
2023/03/03 02:27:35;;;;;;;26.45;13.20;;;;;;;1.63;97.61;102273.19;5115444;28;20440;-87
2023/03/03 02:30:24;;;;;;;30.40;13.50;;;;;;;1.60;97.65;102278.78;5115922;28;20467;-87
2023/03/03 02:32:54;;;;;;;28.47;12.83;;;;;;;1.53;96.82;102278.41;5116014;28;20028;-86
2023/03/03 02:35:28;;;;;;;28.70;12.48;;;;;;;1.55;96.68;102279.16;5081759;28;20043;-86
2023/03/03 02:38:06;;;;;;;28.55;12.43;;;;;;;1.45;96.46;102283.53;5115398;28;20050;-86
2023/03/03 02:40:36;;;;;;;29.48;11.73;;;;;;;1.41;96.44;102279.38;5133842;28;20043;-87
2023/03/03 02:43:12;;;;;;;30.88;12.95;;;;;;;1.34;96.82;102286.16;5118622;27;20019;-86
2023/03/03 02:45:43;;;;;;;31.03;13.60;;;;;;;1.33;96.34;102289.81;5119308;27;20443;-86
2023/03/03 02:48:13;;;;;;;29.45;13.63;;;;;;;1.26;96.95;102280.59;5138349;27;20023;-86
2023/03/03 02:50:38;;;;;;;29.13;13.05;;;;;;;1.22;97.07;102286.13;5137196;27;20763;-86
2023/03/03 02:53:12;;;;;;;27.77;12.00;;;;;;;1.20;97.39;102282.75;5119310;27;20041;-87
2023/03/03 02:55:40;;;;;;;28.73;12.65;;;;;;;1.20;97.75;102282.75;5137838;27;20054;-87
2023/03/03 02:58:05;;;;;;;29.45;12.88;;;;;;;1.18;97.30;102287.38;5119045;27;20019;-86
2023/03/03 03:00:40;;;;;;;28.40;11.80;;;;;;;1.17;97.73;102282.16;5119266;27;20031;-86
2023/03/03 03:03:05;;;;;;;29.05;12.23;;;;;;;1.13;97.62;102283.34;5101395;27;20130;-86
2023/03/03 03:05:33;;;;;;;27.63;11.90;;;;;;;1.11;97.49;102286.13;5119370;27;20454;-86
2023/03/03 03:07:59;;;;;;;31.13;12.35;;;;;;;1.09;97.48;102284.53;5137392;27;20499;-86
2023/03/03 03:10:24;;;;;;;30.53;12.73;;;;;;;1.07;98.01;102291.84;5119027;27;20103;-87
2023/03/03 03:12:52;;;;;;;28.10;12.55;;;;;;;1.08;97.82;102291.72;5118944;27;20322;-87
2023/03/03 03:15:20;;;;;;;28.90;12.80;;;;;;;1.04;98.06;102290.25;5118941;27;20133;-86
2023/03/03 03:17:46;;;;;;;28.33;11.83;;;;;;;1.02;98.71;102289.53;5118856;27;20030;-86
2023/03/03 03:20:15;;;;;;;28.83;12.18;;;;;;;0.99;98.32;102282.59;5137018;27;20035;-87
2023/03/03 03:22:43;;;;;;;25.02;11.45;;;;;;;1.02;98.51;102294.88;5102079;28;20067;-86
2023/03/03 03:25:09;;;;;;;28.23;11.90;;;;;;;1.04;97.81;102293.75;5116664;28;20092;-87
2023/03/03 03:27:35;;;;;;;27.73;11.98;;;;;;;1.06;97.74;102296.31;5116390;28;20131;-86
2023/03/03 03:30:00;;;;;;;26.37;11.47;;;;;;;1.11;97.79;102288.81;5098301;28;20429;-87
2023/03/03 03:32:31;;;;;;;28.13;11.75;;;;;;;1.13;97.88;102294.88;5116278;28;20084;-86
2023/03/03 03:34:57;;;;;;;27.67;11.50;;;;;;;1.13;97.56;102292.22;5099150;28;20031;-87
2023/03/03 03:37:25;;;;;;;28.30;12.43;;;;;;;1.18;97.82;102295.41;5097903;28;20063;-86
2023/03/03 03:39:50;;;;;;;29.35;12.02;;;;;;;1.15;98.13;102298.31;5081149;28;20055;-86
2023/03/03 03:42:18;;;;;;;26.63;11.43;;;;;;;1.18;97.72;102295.41;5098539;28;20112;-86
2023/03/03 03:44:44;;;;;;;25.67;12.05;;;;;;;1.22;97.73;102304.84;5080812;28;20024;-87
2023/03/03 03:47:09;;;;;;;26.37;11.83;;;;;;;1.20;97.68;102308.66;5081199;28;20024;-86
2023/03/03 03:49:35;;;;;;;26.70;11.30;;;;;;;1.17;97.81;102298.19;5098068;28;20089;-87
2023/03/03 03:52:01;;;;;;;28.80;12.47;;;;;;;1.14;98.01;102296.59;5097488;28;20379;-86
2023/03/03 03:54:27;;;;;;;28.45;11.80;;;;;;;1.19;97.71;102309.59;5096979;28;20492;-86
2023/03/03 03:56:55;;;;;;;25.52;11.18;;;;;;;1.13;97.69;102297.56;5098013;28;20035;-86
2023/03/03 03:59:20;;;;;;;29.00;12.15;;;;;;;1.09;97.58;102306.78;5097837;28;20027;-86
2023/03/03 04:01:49;;;;;;;24.30;10.60;;;;;;;1.10;97.52;102304.97;5097640;28;20037;-86
2023/03/03 04:04:14;;;;;;;25.50;10.43;;;;;;;1.08;97.18;102314.91;5116031;28;20028;-86
2023/03/03 04:06:40;;;;;;;23.45;11.13;;;;;;;1.09;97.65;102311.28;5115944;28;20034;-87
2023/03/03 04:09:05;;;;;;;25.20;10.87;;;;;;;1.08;97.91;102314.91;5097831;28;20145;-86
2023/03/03 04:11:31;;;;;;;28.65;11.52;;;;;;;1.09;96.88;102317.47;5097646;28;20273;-86
2023/03/03 04:13:59;;;;;;;25.17;10.97;;;;;;;1.04;97.56;102314.31;5097436;28;20032;-86
2023/03/03 04:16:25;;;;;;;22.98;10.68;;;;;;;1.03;97.23;102323.28;5097073;28;20028;-87
2023/03/03 04:18:53;;;;;;;23.43;9.87;;;;;;;0.97;96.89;102323.75;5080410;28;20491;-86
2023/03/03 04:21:19;;;;;;;22.35;9.50;;;;;;;0.91;97.60;102318.88;5096882;28;20375;-86
2023/03/03 04:23:47;;;;;;;20.40;9.35;;;;;;;0.84;97.92;102311.34;5097191;28;20024;-86
2023/03/03 04:26:12;;;;;;;23.50;9.88;;;;;;;0.81;98.30;102329.41;5097876;28;20036;-87
2023/03/03 04:28:40;;;;;;;21.47;9.03;;;;;;;0.84;98.38;102327.38;5096969;28;20030;-86
2023/03/03 04:31:05;;;;;;;24.98;10.57;;;;;;;0.87;98.57;102328.94;5097179;28;20573;-86
2023/03/03 04:33:36;;;;;;;26.93;11.03;;;;;;;0.85;98.73;102325.53;5115332;28;20027;-86
2023/03/03 04:36:02;;;;;;;25.17;10.70;;;;;;;0.83;99.02;102322.13;5080857;28;20500;-86
2023/03/03 04:38:31;;;;;;;25.08;10.85;;;;;;;0.82;99.42;102331.94;5096415;28;20048;-86
2023/03/03 04:40:59;;;;;;;22.63;9.93;;;;;;;0.88;98.97;102322.63;5097003;28;20050;-86
2023/03/03 04:43:27;;;;;;;26.58;10.82;;;;;;;0.87;98.54;102319.13;5096756;28;20038;-86
2023/03/03 04:45:55;;;;;;;22.33;10.82;;;;;;;0.86;97.88;102328.09;5079860;28;20027;-86
2023/03/03 04:48:24;;;;;;;26.73;11.00;;;;;;;0.81;98.54;102319.59;5096764;28;20016;-86
2023/03/03 04:50:50;;;;;;;22.70;10.35;;;;;;;0.85;99.08;102326.38;5096108;28;20023;-86
2023/03/03 04:53:17;;;;;;;22.20;9.60;;;;;;;0.85;98.43;102326.38;5096655;28;20031;-86
2023/03/03 04:55:43;;;;;;;23.73;10.38;;;;;;;0.85;99.31;102321.03;5096552;28;20532;-86
2023/03/03 04:58:12;;;;;;;23.73;10.60;;;;;;;0.89;98.85;102329.69;5096984;28;20059;-86
2023/03/03 05:00:38;;;;;;;23.15;10.77;;;;;;;0.93;98.57;102325.81;5096224;28;20089;-86
2023/03/03 05:03:11;;;;;;;25.25;10.73;;;;;;;0.96;98.35;102332.72;5095710;28;20043;-87
2023/03/03 05:05:37;;;;;;;25.43;10.27;;;;;;;0.96;98.46;102324.72;5114451;28;20034;-85
2023/03/03 05:08:07;;;;;;;25.73;10.77;;;;;;;0.97;98.53;102329.94;5095856;28;20122;-87
2023/03/03 05:10:32;;;;;;;24.23;10.63;;;;;;;0.93;99.43;102325.81;5096142;28;20063;-87
2023/03/03 05:13:01;;;;;;;26.55;11.52;;;;;;;0.88;98.82;102323.47;5096291;28;20127;-86
2023/03/03 05:15:32;;;;;;;25.27;10.25;;;;;;;0.92;99.06;102334.81;5096488;28;20036;-86
2023/03/03 05:17:58;;;;;;;24.85;10.20;;;;;;;0.86;98.90;102329.91;5096333;28;20035;-87
2023/03/03 05:20:24;;;;;;;22.88;10.02;;;;;;;0.83;99.42;102335.50;5096249;28;20032;-86
2023/03/03 05:22:50;;;;;;;27.27;11.45;;;;;;;0.87;99.12;102331.59;5095575;28;20381;-87
2023/03/03 05:25:16;;;;;;;25.13;10.47;;;;;;;0.91;99.59;102348.28;5114457;28;20043;-86
2023/03/03 05:27:53;;;;;;;25.20;10.55;;;;;;;0.85;99.71;102342.41;5096179;28;20023;-86
2023/03/03 05:30:22;;;;;;;26.70;11.07;;;;;;;0.91;100.00;102340.25;5096205;28;20023;-86
2023/03/03 05:32:49;;;;;;;24.98;10.73;;;;;;;0.91;99.57;102335.75;5096038;28;20055;-86
2023/03/03 05:35:35;;;;;;;;;;;;;;;;;;;;;
2023/03/03 05:38:04;;;;;;;27.70;11.40;;;;;;;1.05;98.83;102338.25;5114293;28;20047;-86
2023/03/03 05:40:46;;;;;;;26.08;11.25;;;;;;;1.05;98.84;102345.44;5114115;28;20043;-87
2023/03/03 05:43:11;;;;;;;25.10;10.25;;;;;;;1.07;98.46;102343.47;5095908;28;20031;-86
2023/03/03 05:45:39;;;;;;;28.13;11.30;;;;;;;1.11;98.70;102338.72;5096083;28;20375;-86
2023/03/03 05:48:05;;;;;;;27.98;10.95;;;;;;;1.08;98.66;102339.84;5095495;28;20038;-86
2023/03/03 05:50:31;;;;;;;29.13;10.60;;;;;;;1.11;99.27;102342.28;5095901;28;20024;-86
2023/03/03 05:52:57;;;;;;;27.10;10.75;;;;;;;1.11;99.49;102347.63;5113208;28;20027;-86
2023/03/03 05:55:25;;;;;;;25.65;10.27;;;;;;;1.10;99.24;102345.91;5094898;28;20031;-87
2023/03/03 05:57:56;;;;;;;25.08;10.43;;;;;;;1.16;98.47;102350.78;5095669;28;20084;-86
2023/03/03 06:00:24;;;;;;;25.50;9.47;;;;;;;1.18;98.88;102346.19;5095382;28;20076;-86
2023/03/03 06:02:49;;;;;;;26.67;10.85;;;;;;;1.17;98.72;102341.81;5095231;28;20119;-86
2023/03/03 06:05:15;;;;;;;27.35;10.13;;;;;;;1.23;98.76;102348.50;5095331;28;20093;-86
2023/03/03 06:07:40;;;;;;;23.20;10.07;;;;;;;1.26;98.77;102347.44;5095530;28;20027;-86
2023/03/03 06:10:06;;;;;;;23.37;9.27;;;;;;;1.23;98.46;102346.69;5095529;28;20422;-86
2023/03/03 06:12:32;;;;;;;26.25;10.90;;;;;;;1.26;98.23;102350.09;5113970;28;20081;-86
2023/03/03 06:15:00;;;;;;;25.80;10.60;;;;;;;1.25;98.31;102343.88;5095395;28;20028;-86
2023/03/03 06:17:26;;;;;;;23.20;9.88;;;;;;;1.30;98.53;102346.19;5097842;28;20036;-86
2023/03/03 06:19:54;;;;;;;26.90;11.13;;;;;;;1.35;98.27;102358.25;5099543;28;20493;-86
2023/03/03 06:22:22;;;;;;;25.63;10.35;;;;;;;1.36;98.58;102351.09;5117544;28;20033;-86
2023/03/03 06:24:53;;;;;;;28.83;10.52;;;;;;;1.43;98.48;102364.84;5099279;28;20035;-86
2023/03/03 06:27:21;;;;;;;22.48;9.63;;;;;;;1.44;98.28;102367.41;5099363;28;20070;-86
2023/03/03 06:29:47;;;;;;;25.47;10.37;;;;;;;1.47;97.51;102366.31;5099311;28;20127;-86
2023/03/03 06:32:14;;;;;;;23.83;9.27;;;;;;;1.48;97.56;102376.91;5099245;28;20065;-87
2023/03/03 06:34:40;;;;;;;25.30;9.98;;;;;;;1.49;97.46;102373.25;5117559;28;20031;-86
2023/03/03 06:37:06;;;;;;;25.88;10.75;;;;;;;1.51;97.13;102373.16;5099187;28;20101;-85
2023/03/03 06:39:31;;;;;;;21.97;9.47;;;;;;;1.56;96.67;102382.50;5104190;27;20122;-84
2023/03/03 06:41:59;;;;;;;24.53;10.00;;;;;;;1.61;96.09;102390.19;5114050;27;20051;-84
2023/03/03 06:44:25;;;;;;;25.83;10.02;;;;;;;1.63;96.93;102390.91;5136904;27;20031;-84
2023/03/03 06:46:56;;;;;;;23.97;9.97;;;;;;;1.62;96.53;102391.88;5137460;27;20403;-84
2023/03/03 06:49:21;;;;;;;28.00;10.13;;;;;;;1.64;96.21;102395.31;5119297;27;20751;-86
2023/03/03 06:51:47;;;;;;;25.58;10.88;;;;;;;1.69;96.26;102400.28;5118305;27;20034;-84
2023/03/03 06:54:15;;;;;;;24.13;9.63;;;;;;;1.71;95.93;102401.00;5119109;27;20035;-84
2023/03/03 06:56:46;;;;;;;27.65;10.80;;;;;;;1.77;95.60;102405.03;5119758;27;20066;-84
2023/03/03 06:59:14;;;;;;;27.17;9.95;;;;;;;1.82;95.99;102409.06;5137519;27;20510;-83
2023/03/03 07:01:41;;;;;;;29.23;11.70;;;;;;;1.87;96.02;102412.22;5137685;27;20030;-84
2023/03/03 07:04:27;;;;;;;25.65;10.45;;;;;;;1.90;95.82;102414.66;5117008;27;20107;-88
2023/03/03 07:06:54;;;;;;;27.63;9.85;;;;;;;1.93;95.92;102411.78;5124997;27;20023;-84
2023/03/03 07:09:26;;;;;;;29.70;11.10;;;;;;;1.95;95.65;102414.31;5127602;27;20156;-84
2023/03/03 07:11:55;;;;;;;25.70;10.32;;;;;;;1.98;95.47;102410.53;5126705;27;20034;-84
2023/03/03 07:14:21;;;;;;;26.25;10.27;;;;;;;2.01;94.79;102413.84;5127791;27;20019;-84
2023/03/03 07:16:55;;;;;;;25.70;10.85;;;;;;;2.06;94.42;102418.81;5104663;27;20031;-84
2023/03/03 07:19:30;;;;;;;25.33;10.20;;;;;;;2.07;94.67;102408.00;5118723;27;20031;-84
2023/03/03 07:21:56;;;;;;;30.92;10.63;;;;;;;2.12;94.24;102421.00;5118179;27;20302;-84
2023/03/03 07:24:33;;;;;;;28.77;11.20;;;;;;;2.16;94.19;102421.66;5100993;27;20022;-84
2023/03/03 07:27:28;;;;;;;29.55;11.40;;;;;;;2.19;94.13;102419.56;5118584;27;20027;-83
2023/03/03 07:30:15;;;;;;;29.23;11.27;;;;;;;2.25;93.96;102421.75;5117349;27;20011;-84
2023/03/03 07:32:45;;;;;;;29.80;10.73;;;;;;;2.34;93.71;102424.69;5107498;27;20491;-84
2023/03/03 07:35:41;;;;;;;28.27;10.90;;;;;;;2.44;92.81;102425.66;5118282;27;20087;-84
2023/03/03 07:38:24;;;;;;;28.38;11.02;;;;;;;2.41;92.45;102415.19;5107789;27;20096;-83
2023/03/03 07:40:52;;;;;;;31.80;12.25;;;;;;;2.45;92.93;102432.69;5108242;27;20031;-84
2023/03/03 07:43:27;;;;;;;28.10;10.85;;;;;;;2.51;93.45;102437.59;5108707;27;20083;-84
2023/03/03 07:45:58;;;;;;;30.20;11.57;;;;;;;2.57;93.07;102438.88;5126794;27;20061;-84
2023/03/03 07:48:35;;;;;;;29.67;11.63;;;;;;;2.61;92.79;102438.53;5118216;27;20054;-84
2023/03/03 07:51:21;;;;;;;30.77;11.40;;;;;;;2.65;92.32;102439.13;5135840;27;20024;-85
2023/03/03 07:53:47;;;;;;;28.58;10.55;;;;;;;2.64;92.31;102434.75;5117464;27;20023;-84
2023/03/03 07:56:33;;;;;;;29.08;10.88;;;;;;;2.73;92.11;102446.53;5117923;27;20542;-84
2023/03/03 07:58:58;;;;;;;24.27;9.97;;;;;;;2.74;91.37;102438.38;5117939;27;20432;-84
2023/03/03 08:01:45;;;;;;;30.75;10.40;;;;;;;2.79;91.11;102446.91;5136051;27;20031;-84
2023/03/03 08:04:20;;;;;;;26.90;10.52;;;;;;;2.85;91.32;102444.69;5136397;27;20467;-84
2023/03/03 08:06:51;;;;;;;27.55;10.68;;;;;;;2.86;90.81;102455.28;5136155;27;20034;-84
2023/03/03 08:09:16;;;;;;;32.63;11.93;;;;;;;2.89;90.80;102452.34;5136106;27;20067;-84
2023/03/03 08:11:50;;;;;;;29.15;11.15;;;;;;;2.91;90.58;102458.47;5117528;27;20047;-83
2023/03/03 08:14:24;;;;;;;25.43;10.27;;;;;;;2.92;90.52;102459.31;5117733;27;20118;-84
2023/03/03 08:16:52;;;;;;;26.75;10.15;;;;;;;2.92;90.07;102462.84;5118154;27;20060;-83
2023/03/03 08:19:20;;;;;;;26.13;9.27;;;;;;;2.95;89.21;102462.59;5135756;27;20448;-84
2023/03/03 08:21:46;;;;;;;24.08;10.07;;;;;;;2.92;89.04;102457.50;5135134;27;20031;-83
2023/03/03 08:24:14;;;;;;;26.10;11.37;;;;;;;2.97;88.59;102467.84;5135878;27;20527;-84
2023/03/03 08:26:49;;;;;;;25.50;10.20;;;;;;;2.96;88.56;102472.34;5135899;27;20058;-83
2023/03/03 08:29:14;;;;;;;26.90;9.35;;;;;;;3.07;87.82;102478.66;5117751;27;20123;-85
2023/03/03 08:31:42;;;;;;;25.67;9.80;;;;;;;3.08;87.46;102472.31;5117327;27;20062;-84
2023/03/03 08:34:09;;;;;;;22.35;9.52;;;;;;;3.15;87.33;102476.19;5117690;27;20054;-85
2023/03/03 08:36:35;;;;;;;23.88;8.95;;;;;;;3.24;86.60;102479.94;5117284;27;20047;-86
2023/03/03 08:39:04;;;;;;;23.00;8.40;;;;;;;3.31;86.00;102468.56;5116928;27;20054;-83
2023/03/03 08:41:34;;;;;;;22.42;9.05;;;;;;;3.46;85.59;102473.66;5117066;27;20024;-83
2023/03/03 08:44:00;;;;;;;19.20;8.40;;;;;;;3.66;84.88;102469.25;5135320;27;20031;-83
2023/03/03 08:46:25;;;;;;;22.77;9.13;;;;;;;3.82;84.31;102471.50;5135542;27;20042;-83
2023/03/03 08:48:51;;;;;;;27.47;9.90;;;;;;;3.97;83.55;102483.63;5099849;27;20092;-83
2023/03/03 08:51:17;;;;;;;27.48;10.45;;;;;;;4.01;83.67;102481.53;5134366;27;20035;-83
2023/03/03 08:53:42;;;;;;;26.17;10.37;;;;;;;4.00;83.72;102488.75;5134912;27;20023;-83
2023/03/03 08:56:10;;;;;;;25.50;10.93;;;;;;;4.00;84.58;102491.44;5117302;27;20527;-83
2023/03/03 08:58:36;;;;;;;29.05;10.50;;;;;;;3.95;84.99;102495.47;5116958;27;20436;-84
2023/03/03 09:01:02;;;;;;;28.83;11.10;;;;;;;3.95;85.01;102503.53;5099781;27;20468;-84
2023/03/03 09:03:30;;;;;;;26.60;10.35;;;;;;;3.93;85.15;102500.16;5116420;27;20316;-84
2023/03/03 09:05:56;;;;;;;30.55;11.93;;;;;;;3.97;85.05;102496.19;5116746;27;20046;-83
2023/03/03 09:08:21;;;;;;;26.93;10.13;;;;;;;4.02;84.25;102491.28;5116899;27;20421;-83
2023/03/03 09:10:47;;;;;;;25.75;10.63;;;;;;;4.09;84.53;102500.53;5134746;27;20027;-83
2023/03/03 09:13:18;;;;;;;23.87;10.37;;;;;;;4.19;84.03;102497.88;5099423;27;20023;-83
2023/03/03 09:15:47;;;;;;;25.08;10.45;;;;;;;4.20;83.34;102500.44;5099856;27;20720;-84
2023/03/03 09:18:18;;;;;;;26.45;10.07;;;;;;;4.32;83.31;102500.38;5114404;27;20039;-84
2023/03/03 09:20:53;;;;;;;27.23;10.10;;;;;;;4.34;82.87;102504.63;5116013;27;20360;-83
2023/03/03 09:23:28;;;;;;;22.00;9.60;;;;;;;4.45;82.52;102503.69;5134633;27;20026;-83
2023/03/03 09:26:29;;;;;;;23.55;9.68;;;;;;;4.50;81.78;102501.47;5112914;27;20376;-84
2023/03/03 09:29:13;;;;;;;23.05;8.85;;;;;;;4.59;80.96;102504.31;5110437;27;20027;-84
2023/03/03 09:31:47;;;;;;;19.20;8.57;;;;;;;4.68;79.92;102508.84;5107775;27;20027;-83
2023/03/03 09:34:20;;;;;;;24.63;8.82;;;;;;;4.73;79.24;102507.47;5112590;27;20027;-86
2023/03/03 09:36:48;;;;;;;24.23;9.20;;;;;;;4.79;78.10;102505.25;5134045;27;20065;-85
2023/03/03 09:39:26;;;;;;;20.75;8.77;;;;;;;4.88;78.31;102515.16;5133867;27;20034;-86
2023/03/03 09:42:19;;;;;;;18.83;8.40;;;;;;;4.99;78.28;102512.38;5099606;27;20080;-83
2023/03/03 09:45:10;;;;;;;19.15;8.38;;;;;;;5.09;77.91;102512.38;5115968;27;20543;-84
2023/03/03 09:47:51;;;;;;;19.80;7.53;;;;;;;5.17;77.13;102511.72;5116058;27;20023;-84
2023/03/03 09:50:30;;;;;;;17.17;8.10;;;;;;;5.18;76.74;102508.00;5115789;27;20034;-83
2023/03/03 09:53:32;;;;;;;15.77;7.05;;;;;;;5.34;76.51;102515.53;5114637;27;20038;-84
2023/03/03 09:56:41;;;;;;;16.25;7.70;;;;;;;5.54;75.88;102519.97;5115937;28;20027;-84
2023/03/03 09:59:15;;;;;;;18.27;7.75;;;;;;;5.92;74.05;102518.25;5116219;28;20046;-83
2023/03/03 10:02:05;;;;;;;14.55;6.53;;;;;;;6.12;72.52;102519.06;5115953;28;20035;-84
2023/03/03 10:05:00;;;;;;;13.40;6.13;;;;;;;6.19;72.71;102518.53;5115872;28;20027;-84
2023/03/03 10:07:48;;;;;;;13.00;5.90;;;;;;;6.07;71.82;102528.63;5134456;28;20023;-83
2023/03/03 10:10:14;;;;;;;11.82;5.63;;;;;;;6.03;71.83;102525.34;5116110;28;20136;-83
2023/03/03 10:13:11;;;;;;;17.23;6.60;;;;;;;6.03;71.71;102525.34;5115480;28;20058;-84
2023/03/03 10:16:24;;;;;;;14.85;6.75;;;;;;;6.11;72.10;102522.78;5085754;28;20037;-83
2023/03/03 10:18:51;;;;;;;13.90;6.07;;;;;;;6.18;71.18;102517.66;5039132;28;20043;-83
2023/03/03 10:21:28;;;;;;;11.70;5.72;;;;;;;6.32;70.62;102521.75;5114935;28;20031;-83
2023/03/03 10:24:42;;;;;;;17.05;6.72;;;;;;;6.52;70.97;102527.06;5115599;28;20027;-83
2023/03/03 10:27:41;;;;;;;11.50;5.60;;;;;;;6.70;69.89;102529.84;5043583;28;20056;-83
2023/03/03 10:30:22;;;;;;;16.10;6.78;;;;;;;6.81;68.70;102524.25;5115316;28;20122;-84
2023/03/03 10:33:17;;;;;;;15.23;6.60;;;;;;;6.84;68.54;102526.66;5115777;28;20054;-84
2023/03/03 10:35:48;;;;;;;13.50;6.15;;;;;;;6.95;68.76;102521.06;5133628;28;20027;-84
2023/03/03 10:38:17;;;;;;;14.13;6.63;;;;;;;7.08;68.08;102528.78;5115221;28;20047;-83
2023/03/03 10:40:48;;;;;;;11.95;6.03;;;;;;;7.18;67.93;102516.09;5130023;28;20548;-83
2023/03/03 10:43:52;;;;;;;18.65;6.85;;;;;;;7.46;68.33;102524.13;5122282;28;20027;-83
2023/03/03 10:46:36;;;;;;;16.10;6.80;;;;;;;7.64;67.48;102512.50;5076616;28;20032;-84
2023/03/03 10:49:15;;;;;;;13.20;6.47;;;;;;;7.81;66.11;102505.34;5106551;28;20383;-83
2023/03/03 10:51:54;;;;;;;11.80;5.80;;;;;;;7.98;65.24;102504.47;5111907;28;20106;-83
2023/03/03 10:54:44;;;;;;;14.23;6.95;;;;;;;8.13;65.00;102503.91;5115473;28;20027;-84
2023/03/03 10:57:12;;;;;;;13.13;6.78;;;;;;;8.17;63.50;102511.53;5130530;28;20119;-83
2023/03/03 10:59:53;;;;;;;14.73;7.40;;;;;;;8.24;63.24;102518.03;5112742;28;20518;-84
2023/03/03 11:02:37;;;;;;;13.20;6.28;;;;;;;8.44;63.37;102515.13;5104758;27;20031;-84
2023/03/03 11:05:30;;;;;;;15.13;6.85;;;;;;;8.86;63.51;102508.03;5107629;27;20031;-83
2023/03/03 11:08:11;;;;;;;14.85;6.93;;;;;;;8.82;61.32;102515.66;5119128;27;20528;-84
2023/03/03 11:10:47;;;;;;;15.35;7.03;;;;;;;8.58;62.01;102502.88;5118981;27;20397;-84
2023/03/03 11:13:26;;;;;;;17.17;6.87;;;;;;;8.38;62.14;102503.03;5137087;27;20035;-83
2023/03/03 11:16:10;;;;;;;12.57;6.30;;;;;;;8.57;62.26;102509.28;5118562;27;20034;-83
2023/03/03 11:19:00;;;;;;;12.52;6.43;;;;;;;9.18;61.48;102511.88;5118344;27;20039;-84
2023/03/03 11:21:39;;;;;;;14.00;6.70;;;;;;;9.59;59.03;102498.41;5111676;28;20425;-83
2023/03/03 11:24:30;;;;;;;12.90;6.15;;;;;;;9.97;58.04;102501.44;5097757;28;20083;-83
2023/03/03 11:27:11;;;;;;;14.20;7.17;;;;;;;10.49;57.43;102492.03;5116222;28;20028;-83
2023/03/03 11:30:03;;;;;;;12.57;6.45;;;;;;;11.14;55.11;102498.19;5116709;28;20107;-84
2023/03/03 11:33:03;;;;;;;13.65;6.57;;;;;;;11.58;54.42;102486.69;5116454;28;20028;-84
2023/03/03 11:35:40;;;;;;;15.25;6.82;;;;;;;11.55;52.38;102493.31;5098142;28;20039;-84
2023/03/03 11:38:11;;;;;;;13.43;6.88;;;;;;;11.41;51.54;102486.81;5093844;28;20480;-84
2023/03/03 11:40:47;;;;;;;14.33;7.40;;;;;;;11.73;51.99;102490.28;5096132;28;20036;-84
2023/03/03 11:43:21;;;;;;;12.02;7.22;;;;;;;11.96;50.99;102481.28;5095468;28;20124;-84
2023/03/03 11:45:52;;;;;;;12.50;6.93;;;;;;;12.38;49.41;102489.88;5094693;28;20076;-83